sensor_id;sensor_type;location;lat;lon;timestamp;P1;durP1;ratioP1;P2;durP2;ratioP2
51438;SDS011;38816;51.142;-0.974;2023-05-18T00:00:36;24.77;;;14.82;;
51438;SDS011;38816;51.142;-0.974;2023-05-18T00:03:02;20.58;;;15.18;;
51438;SDS011;38816;51.142;-0.974;2023-05-18T00:05:27;21.90;;;15.15;;
51438;SDS011;38816;51.142;-0.974;2023-05-18T00:07:58;21.65;;;14.88;;
51438;SDS011;38816;51.142;-0.974;2023-05-18T00:10:23;19.83;;;14.02;;
51438;SDS011;38816;51.142;-0.974;2023-05-18T00:12:49;22.88;;;14.77;;
51438;SDS011;38816;51.142;-0.974;2023-05-18T00:15:15;22.65;;;14.60;;
51438;SDS011;38816;51.142;-0.974;2023-05-18T00:17:40;25.05;;;14.75;;
51438;SDS011;38816;51.142;-0.974;2023-05-18T00:20:06;31.42;;;15.30;;
51438;SDS011;38816;51.142;-0.974;2023-05-18T00:22:33;21.40;;;14.88;;
51438;SDS011;38816;51.142;-0.974;2023-05-18T00:24:59;21.60;;;14.93;;
51438;SDS011;38816;51.142;-0.974;2023-05-18T00:27:24;24.88;;;15.07;;
51438;SDS011;38816;51.142;-0.974;2023-05-18T00:29:50;21.25;;;14.63;;
51438;SDS011;38816;51.142;-0.974;2023-05-18T00:32:15;22.05;;;14.15;;
51438;SDS011;38816;51.142;-0.974;2023-05-18T00:34:40;22.02;;;14.98;;
51438;SDS011;38816;51.142;-0.974;2023-05-18T00:37:06;21.65;;;14.38;;
51438;SDS011;38816;51.142;-0.974;2023-05-18T00:39:31;24.17;;;13.98;;
51438;SDS011;38816;51.142;-0.974;2023-05-18T00:41:56;15.40;;;12.98;;
51438;SDS011;38816;51.142;-0.974;2023-05-18T00:44:22;17.48;;;13.77;;
51438;SDS011;38816;51.142;-0.974;2023-05-18T00:46:47;20.42;;;13.32;;
51438;SDS011;38816;51.142;-0.974;2023-05-18T00:49:14;22.95;;;13.02;;
51438;SDS011;38816;51.142;-0.974;2023-05-18T00:51:39;19.58;;;12.73;;
51438;SDS011;38816;51.142;-0.974;2023-05-18T00:54:05;22.88;;;12.32;;
51438;SDS011;38816;51.142;-0.974;2023-05-18T00:56:31;20.08;;;11.60;;
51438;SDS011;38816;51.142;-0.974;2023-05-18T00:58:58;17.42;;;11.93;;
51438;SDS011;38816;51.142;-0.974;2023-05-18T01:01:26;15.35;;;11.30;;
51438;SDS011;38816;51.142;-0.974;2023-05-18T01:03:54;19.23;;;11.00;;
51438;SDS011;38816;51.142;-0.974;2023-05-18T01:06:20;12.90;;;11.38;;
51438;SDS011;38816;51.142;-0.974;2023-05-18T01:08:46;15.05;;;10.80;;
51438;SDS011;38816;51.142;-0.974;2023-05-18T01:11:33;14.80;;;10.88;;
51438;SDS011;38816;51.142;-0.974;2023-05-18T01:16:47;19.92;;;11.55;;
51438;SDS011;38816;51.142;-0.974;2023-05-18T01:24:58;14.10;;;10.63;;
51438;SDS011;38816;51.142;-0.974;2023-05-18T01:27:31;12.38;;;10.90;;
51438;SDS011;38816;51.142;-0.974;2023-05-18T01:30:02;16.98;;;10.70;;
51438;SDS011;38816;51.142;-0.974;2023-05-18T01:32:29;12.70;;;11.10;;
51438;SDS011;38816;51.142;-0.974;2023-05-18T01:34:54;14.63;;;11.20;;
51438;SDS011;38816;51.142;-0.974;2023-05-18T01:37:20;20.65;;;11.30;;
51438;SDS011;38816;51.142;-0.974;2023-05-18T01:39:45;22.42;;;11.43;;
51438;SDS011;38816;51.142;-0.974;2023-05-18T01:42:12;16.73;;;10.07;;
51438;SDS011;38816;51.142;-0.974;2023-05-18T01:44:47;19.35;;;11.18;;
51438;SDS011;38816;51.142;-0.974;2023-05-18T01:47:17;18.67;;;9.90;;
51438;SDS011;38816;51.142;-0.974;2023-05-18T01:49:57;14.65;;;10.48;;
51438;SDS011;38816;51.142;-0.974;2023-05-18T01:52:41;18.08;;;9.95;;
51438;SDS011;38816;51.142;-0.974;2023-05-18T01:55:07;16.20;;;10.00;;
51438;SDS011;38816;51.142;-0.974;2023-05-18T01:57:35;19.88;;;11.68;;
51438;SDS011;38816;51.142;-0.974;2023-05-18T02:00:03;13.35;;;9.60;;
51438;SDS011;38816;51.142;-0.974;2023-05-18T02:02:32;17.20;;;10.07;;
51438;SDS011;38816;51.142;-0.974;2023-05-18T02:04:57;17.60;;;10.68;;
51438;SDS011;38816;51.142;-0.974;2023-05-18T02:07:22;13.93;;;10.15;;
51438;SDS011;38816;51.142;-0.974;2023-05-18T02:09:51;12.10;;;10.90;;
51438;SDS011;38816;51.142;-0.974;2023-05-18T02:12:17;19.42;;;10.82;;
51438;SDS011;38816;51.142;-0.974;2023-05-18T02:14:42;14.75;;;10.35;;
51438;SDS011;38816;51.142;-0.974;2023-05-18T02:17:08;14.57;;;11.13;;
51438;SDS011;38816;51.142;-0.974;2023-05-18T02:19:33;15.27;;;11.18;;
51438;SDS011;38816;51.142;-0.974;2023-05-18T02:22:02;15.55;;;10.07;;
51438;SDS011;38816;51.142;-0.974;2023-05-18T02:24:33;15.55;;;10.73;;
51438;SDS011;38816;51.142;-0.974;2023-05-18T02:26:59;14.15;;;10.90;;
51438;SDS011;38816;51.142;-0.974;2023-05-18T02:29:25;15.48;;;10.40;;
51438;SDS011;38816;51.142;-0.974;2023-05-18T02:31:50;24.15;;;10.60;;
51438;SDS011;38816;51.142;-0.974;2023-05-18T02:34:16;15.70;;;11.23;;
51438;SDS011;38816;51.142;-0.974;2023-05-18T02:36:42;15.38;;;10.77;;
51438;SDS011;38816;51.142;-0.974;2023-05-18T02:39:08;15.85;;;10.65;;
51438;SDS011;38816;51.142;-0.974;2023-05-18T02:41:34;18.55;;;11.00;;
51438;SDS011;38816;51.142;-0.974;2023-05-18T02:44:00;17.27;;;11.50;;
51438;SDS011;38816;51.142;-0.974;2023-05-18T02:46:27;17.73;;;11.07;;
51438;SDS011;38816;51.142;-0.974;2023-05-18T02:48:53;14.60;;;10.95;;
51438;SDS011;38816;51.142;-0.974;2023-05-18T02:51:18;16.10;;;11.48;;
51438;SDS011;38816;51.142;-0.974;2023-05-18T02:53:44;17.42;;;11.68;;
51438;SDS011;38816;51.142;-0.974;2023-05-18T02:56:09;14.85;;;10.88;;
51438;SDS011;38816;51.142;-0.974;2023-05-18T02:58:36;18.05;;;10.60;;
51438;SDS011;38816;51.142;-0.974;2023-05-18T03:01:01;19.35;;;11.27;;
51438;SDS011;38816;51.142;-0.974;2023-05-18T03:03:27;16.50;;;11.75;;
51438;SDS011;38816;51.142;-0.974;2023-05-18T03:05:53;16.88;;;10.57;;
51438;SDS011;38816;51.142;-0.974;2023-05-18T03:08:19;12.30;;;10.38;;
51438;SDS011;38816;51.142;-0.974;2023-05-18T03:10:47;36.85;;;14.30;;
51438;SDS011;38816;51.142;-0.974;2023-05-18T03:13:12;55.97;;;22.55;;
51438;SDS011;38816;51.142;-0.974;2023-05-18T03:15:38;53.92;;;24.02;;
51438;SDS011;38816;51.142;-0.974;2023-05-18T03:18:04;58.45;;;23.90;;
51438;SDS011;38816;51.142;-0.974;2023-05-18T03:20:30;46.38;;;22.27;;
51438;SDS011;38816;51.142;-0.974;2023-05-18T03:22:55;48.97;;;22.17;;
51438;SDS011;38816;51.142;-0.974;2023-05-18T03:25:21;45.00;;;20.40;;
51438;SDS011;38816;51.142;-0.974;2023-05-18T03:27:49;28.17;;;16.13;;
51438;SDS011;38816;51.142;-0.974;2023-05-18T03:30:18;28.60;;;13.55;;
51438;SDS011;38816;51.142;-0.974;2023-05-18T03:32:44;17.98;;;11.98;;
51438;SDS011;38816;51.142;-0.974;2023-05-18T03:35:11;18.08;;;11.23;;
51438;SDS011;38816;51.142;-0.974;2023-05-18T03:37:36;18.95;;;11.32;;
51438;SDS011;38816;51.142;-0.974;2023-05-18T03:40:09;16.55;;;10.23;;
51438;SDS011;38816;51.142;-0.974;2023-05-18T03:42:36;17.63;;;10.48;;
51438;SDS011;38816;51.142;-0.974;2023-05-18T03:45:02;13.07;;;10.00;;
51438;SDS011;38816;51.142;-0.974;2023-05-18T03:47:28;14.40;;;10.07;;
51438;SDS011;38816;51.142;-0.974;2023-05-18T03:49:54;18.83;;;10.00;;
51438;SDS011;38816;51.142;-0.974;2023-05-18T03:52:19;12.40;;;9.82;;
51438;SDS011;38816;51.142;-0.974;2023-05-18T03:54:46;16.88;;;10.65;;
51438;SDS011;38816;51.142;-0.974;2023-05-18T03:57:13;16.15;;;10.15;;
51438;SDS011;38816;51.142;-0.974;2023-05-18T03:59:39;17.45;;;10.63;;
51438;SDS011;38816;51.142;-0.974;2023-05-18T04:02:05;22.92;;;12.93;;
51438;SDS011;38816;51.142;-0.974;2023-05-18T04:04:31;26.45;;;13.45;;
51438;SDS011;38816;51.142;-0.974;2023-05-18T04:06:57;25.35;;;14.65;;
51438;SDS011;38816;51.142;-0.974;2023-05-18T04:09:25;27.98;;;14.35;;
51438;SDS011;38816;51.142;-0.974;2023-05-18T04:11:52;22.20;;;12.75;;
51438;SDS011;38816;51.142;-0.974;2023-05-18T04:14:17;23.77;;;13.45;;
51438;SDS011;38816;51.142;-0.974;2023-05-18T04:16:44;24.40;;;13.38;;
51438;SDS011;38816;51.142;-0.974;2023-05-18T04:19:10;22.20;;;11.57;;
51438;SDS011;38816;51.142;-0.974;2023-05-18T04:21:37;25.88;;;13.38;;
51438;SDS011;38816;51.142;-0.974;2023-05-18T04:24:07;20.20;;;12.45;;
51438;SDS011;38816;51.142;-0.974;2023-05-18T04:26:33;20.35;;;12.68;;
51438;SDS011;38816;51.142;-0.974;2023-05-18T04:29:00;26.00;;;13.05;;
51438;SDS011;38816;51.142;-0.974;2023-05-18T04:31:26;18.17;;;11.88;;
51438;SDS011;38816;51.142;-0.974;2023-05-18T04:33:53;17.55;;;10.60;;
51438;SDS011;38816;51.142;-0.974;2023-05-18T04:36:19;16.17;;;11.05;;
51438;SDS011;38816;51.142;-0.974;2023-05-18T04:38:45;14.05;;;10.85;;
51438;SDS011;38816;51.142;-0.974;2023-05-18T04:41:10;16.77;;;10.57;;
51438;SDS011;38816;51.142;-0.974;2023-05-18T04:43:36;15.38;;;11.13;;
51438;SDS011;38816;51.142;-0.974;2023-05-18T04:46:01;12.98;;;11.43;;
51438;SDS011;38816;51.142;-0.974;2023-05-18T04:48:28;15.68;;;10.95;;
51438;SDS011;38816;51.142;-0.974;2023-05-18T04:50:54;15.43;;;11.45;;
51438;SDS011;38816;51.142;-0.974;2023-05-18T04:53:20;14.45;;;10.52;;
51438;SDS011;38816;51.142;-0.974;2023-05-18T04:55:49;13.55;;;10.95;;
51438;SDS011;38816;51.142;-0.974;2023-05-18T04:58:15;17.48;;;10.85;;
51438;SDS011;38816;51.142;-0.974;2023-05-18T05:00:41;13.05;;;11.13;;
51438;SDS011;38816;51.142;-0.974;2023-05-18T05:03:07;15.43;;;10.95;;
51438;SDS011;38816;51.142;-0.974;2023-05-18T05:05:32;16.73;;;12.10;;
51438;SDS011;38816;51.142;-0.974;2023-05-18T05:07:58;16.00;;;11.75;;
51438;SDS011;38816;51.142;-0.974;2023-05-18T05:10:24;16.42;;;12.02;;
51438;SDS011;38816;51.142;-0.974;2023-05-18T05:12:52;12.95;;;11.15;;
51438;SDS011;38816;51.142;-0.974;2023-05-18T05:15:17;16.80;;;11.23;;
51438;SDS011;38816;51.142;-0.974;2023-05-18T05:17:45;18.35;;;12.00;;
51438;SDS011;38816;51.142;-0.974;2023-05-18T05:20:10;13.00;;;11.70;;
51438;SDS011;38816;51.142;-0.974;2023-05-18T05:22:36;13.95;;;11.85;;
51438;SDS011;38816;51.142;-0.974;2023-05-18T05:25:01;13.77;;;12.15;;
51438;SDS011;38816;51.142;-0.974;2023-05-18T05:27:27;16.05;;;12.32;;
51438;SDS011;38816;51.142;-0.974;2023-05-18T05:29:53;18.38;;;12.77;;
51438;SDS011;38816;51.142;-0.974;2023-05-18T05:32:18;18.85;;;11.98;;
51438;SDS011;38816;51.142;-0.974;2023-05-18T05:34:44;15.02;;;12.05;;
51438;SDS011;38816;51.142;-0.974;2023-05-18T05:37:12;13.50;;;11.95;;
51438;SDS011;38816;51.142;-0.974;2023-05-18T05:39:38;16.13;;;12.40;;
51438;SDS011;38816;51.142;-0.974;2023-05-18T05:42:04;17.20;;;11.70;;
51438;SDS011;38816;51.142;-0.974;2023-05-18T05:44:31;16.98;;;12.85;;
51438;SDS011;38816;51.142;-0.974;2023-05-18T05:46:57;16.02;;;12.07;;
51438;SDS011;38816;51.142;-0.974;2023-05-18T05:49:22;18.02;;;12.75;;
51438;SDS011;38816;51.142;-0.974;2023-05-18T05:51:47;14.65;;;13.20;;
51438;SDS011;38816;51.142;-0.974;2023-05-18T05:54:13;16.98;;;12.88;;
51438;SDS011;38816;51.142;-0.974;2023-05-18T05:56:38;19.20;;;13.75;;
51438;SDS011;38816;51.142;-0.974;2023-05-18T05:59:04;15.25;;;11.93;;
51438;SDS011;38816;51.142;-0.974;2023-05-18T06:01:30;17.33;;;12.48;;
51438;SDS011;38816;51.142;-0.974;2023-05-18T06:03:56;17.80;;;13.02;;
51438;SDS011;38816;51.142;-0.974;2023-05-18T06:06:21;17.02;;;11.88;;
51438;SDS011;38816;51.142;-0.974;2023-05-18T06:08:46;12.48;;;11.25;;
51438;SDS011;38816;51.142;-0.974;2023-05-18T06:11:12;14.10;;;11.02;;
51438;SDS011;38816;51.142;-0.974;2023-05-18T06:13:37;16.23;;;11.52;;
51438;SDS011;38816;51.142;-0.974;2023-05-18T06:16:03;17.45;;;11.38;;
51438;SDS011;38816;51.142;-0.974;2023-05-18T06:18:28;68.75;;;25.00;;
51438;SDS011;38816;51.142;-0.974;2023-05-18T06:20:54;41.70;;;19.45;;
51438;SDS011;38816;51.142;-0.974;2023-05-18T06:23:20;34.83;;;16.92;;
51438;SDS011;38816;51.142;-0.974;2023-05-18T06:25:47;18.52;;;11.02;;
51438;SDS011;38816;51.142;-0.974;2023-05-18T06:28:13;25.95;;;12.15;;
51438;SDS011;38816;51.142;-0.974;2023-05-18T06:30:39;29.52;;;14.55;;
51438;SDS011;38816;51.142;-0.974;2023-05-18T06:33:05;31.05;;;15.52;;
51438;SDS011;38816;51.142;-0.974;2023-05-18T06:35:31;26.92;;;13.70;;
51438;SDS011;38816;51.142;-0.974;2023-05-18T06:37:57;29.65;;;14.13;;
51438;SDS011;38816;51.142;-0.974;2023-05-18T06:40:22;20.63;;;12.43;;
51438;SDS011;38816;51.142;-0.974;2023-05-18T06:42:47;27.35;;;14.40;;
51438;SDS011;38816;51.142;-0.974;2023-05-18T06:45:13;39.10;;;18.75;;
51438;SDS011;38816;51.142;-0.974;2023-05-18T06:47:38;45.92;;;20.60;;
51438;SDS011;38816;51.142;-0.974;2023-05-18T06:50:04;13.93;;;10.73;;
51438;SDS011;38816;51.142;-0.974;2023-05-18T06:52:29;14.70;;;9.60;;
51438;SDS011;38816;51.142;-0.974;2023-05-18T06:54:55;14.15;;;9.02;;
51438;SDS011;38816;51.142;-0.974;2023-05-18T06:57:20;14.35;;;8.40;;
51438;SDS011;38816;51.142;-0.974;2023-05-18T06:59:46;13.60;;;8.00;;
51438;SDS011;38816;51.142;-0.974;2023-05-18T07:02:17;9.45;;;8.35;;
51438;SDS011;38816;51.142;-0.974;2023-05-18T07:04:43;16.52;;;8.68;;
51438;SDS011;38816;51.142;-0.974;2023-05-18T07:07:09;12.02;;;7.70;;
51438;SDS011;38816;51.142;-0.974;2023-05-18T07:09:34;13.88;;;7.65;;
51438;SDS011;38816;51.142;-0.974;2023-05-18T07:12:01;16.42;;;7.78;;
51438;SDS011;38816;51.142;-0.974;2023-05-18T07:14:26;12.45;;;7.43;;
51438;SDS011;38816;51.142;-0.974;2023-05-18T07:16:51;11.32;;;7.85;;
51438;SDS011;38816;51.142;-0.974;2023-05-18T07:19:17;9.90;;;7.75;;
51438;SDS011;38816;51.142;-0.974;2023-05-18T07:21:42;8.88;;;7.60;;
51438;SDS011;38816;51.142;-0.974;2023-05-18T07:24:08;14.82;;;8.13;;
51438;SDS011;38816;51.142;-0.974;2023-05-18T07:26:33;12.88;;;7.43;;
51438;SDS011;38816;51.142;-0.974;2023-05-18T07:28:58;12.57;;;6.93;;
51438;SDS011;38816;51.142;-0.974;2023-05-18T07:31:25;8.40;;;7.60;;
51438;SDS011;38816;51.142;-0.974;2023-05-18T07:33:50;13.18;;;8.48;;
51438;SDS011;38816;51.142;-0.974;2023-05-18T07:36:16;13.88;;;7.20;;
51438;SDS011;38816;51.142;-0.974;2023-05-18T07:38:42;10.07;;;7.15;;
51438;SDS011;38816;51.142;-0.974;2023-05-18T07:41:08;13.02;;;7.28;;
51438;SDS011;38816;51.142;-0.974;2023-05-18T07:43:33;14.48;;;8.50;;
51438;SDS011;38816;51.142;-0.974;2023-05-18T07:45:59;7.68;;;6.93;;
51438;SDS011;38816;51.142;-0.974;2023-05-18T07:48:24;13.07;;;7.57;;
51438;SDS011;38816;51.142;-0.974;2023-05-18T07:50:49;9.57;;;6.95;;
51438;SDS011;38816;51.142;-0.974;2023-05-18T07:53:15;10.40;;;7.03;;
51438;SDS011;38816;51.142;-0.974;2023-05-18T07:55:41;12.25;;;6.32;;
51438;SDS011;38816;51.142;-0.974;2023-05-18T07:58:06;8.38;;;7.40;;
51438;SDS011;38816;51.142;-0.974;2023-05-18T08:00:32;20.42;;;10.68;;
51438;SDS011;38816;51.142;-0.974;2023-05-18T08:02:58;14.80;;;7.97;;
51438;SDS011;38816;51.142;-0.974;2023-05-18T08:05:24;10.80;;;7.15;;
51438;SDS011;38816;51.142;-0.974;2023-05-18T08:07:50;11.50;;;6.95;;
51438;SDS011;38816;51.142;-0.974;2023-05-18T08:10:15;14.48;;;7.22;;
51438;SDS011;38816;51.142;-0.974;2023-05-18T08:12:41;10.82;;;7.15;;
51438;SDS011;38816;51.142;-0.974;2023-05-18T08:15:07;10.90;;;7.43;;
51438;SDS011;38816;51.142;-0.974;2023-05-18T08:17:33;11.13;;;7.55;;
51438;SDS011;38816;51.142;-0.974;2023-05-18T08:19:58;9.32;;;7.93;;
51438;SDS011;38816;51.142;-0.974;2023-05-18T08:22:23;10.75;;;8.73;;
51438;SDS011;38816;51.142;-0.974;2023-05-18T08:24:49;13.43;;;7.30;;
51438;SDS011;38816;51.142;-0.974;2023-05-18T08:27:14;17.52;;;6.90;;
51438;SDS011;38816;51.142;-0.974;2023-05-18T08:29:40;10.32;;;7.57;;
51438;SDS011;38816;51.142;-0.974;2023-05-18T08:32:05;9.60;;;8.05;;
51438;SDS011;38816;51.142;-0.974;2023-05-18T08:34:31;11.98;;;6.72;;
51438;SDS011;38816;51.142;-0.974;2023-05-18T08:36:57;11.73;;;7.28;;
51438;SDS011;38816;51.142;-0.974;2023-05-18T08:39:24;8.73;;;7.10;;
51438;SDS011;38816;51.142;-0.974;2023-05-18T08:41:54;7.70;;;5.75;;
51438;SDS011;38816;51.142;-0.974;2023-05-18T08:44:27;10.63;;;6.25;;
51438;SDS011;38816;51.142;-0.974;2023-05-18T08:46:58;14.23;;;7.22;;
51438;SDS011;38816;51.142;-0.974;2023-05-18T08:49:25;11.30;;;6.00;;
51438;SDS011;38816;51.142;-0.974;2023-05-18T08:51:54;12.02;;;6.35;;
51438;SDS011;38816;51.142;-0.974;2023-05-18T08:54:22;10.48;;;6.57;;
51438;SDS011;38816;51.142;-0.974;2023-05-18T08:56:48;10.43;;;7.35;;
51438;SDS011;38816;51.142;-0.974;2023-05-18T08:59:13;10.70;;;7.32;;
51438;SDS011;38816;51.142;-0.974;2023-05-18T09:01:42;16.63;;;7.07;;
51438;SDS011;38816;51.142;-0.974;2023-05-18T09:04:08;11.85;;;6.60;;
51438;SDS011;38816;51.142;-0.974;2023-05-18T09:06:34;9.10;;;6.15;;
51438;SDS011;38816;51.142;-0.974;2023-05-18T09:09:00;7.78;;;5.80;;
51438;SDS011;38816;51.142;-0.974;2023-05-18T09:11:31;9.07;;;5.40;;
51438;SDS011;38816;51.142;-0.974;2023-05-18T09:13:58;14.57;;;6.32;;
51438;SDS011;38816;51.142;-0.974;2023-05-18T09:16:24;10.70;;;5.30;;
51438;SDS011;38816;51.142;-0.974;2023-05-18T09:18:50;9.15;;;4.75;;
51438;SDS011;38816;51.142;-0.974;2023-05-18T09:21:16;8.55;;;4.78;;
51438;SDS011;38816;51.142;-0.974;2023-05-18T09:23:42;10.75;;;4.65;;
51438;SDS011;38816;51.142;-0.974;2023-05-18T09:26:07;13.13;;;4.68;;
51438;SDS011;38816;51.142;-0.974;2023-05-18T09:31:07;9.73;;;4.28;;
51438;SDS011;38816;51.142;-0.974;2023-05-18T09:33:36;6.65;;;4.00;;
51438;SDS011;38816;51.142;-0.974;2023-05-18T09:36:06;7.78;;;4.43;;
51438;SDS011;38816;51.142;-0.974;2023-05-18T09:38:36;8.57;;;4.13;;
51438;SDS011;38816;51.142;-0.974;2023-05-18T09:41:02;8.30;;;3.72;;
51438;SDS011;38816;51.142;-0.974;2023-05-18T09:43:34;5.43;;;3.58;;
51438;SDS011;38816;51.142;-0.974;2023-05-18T09:45:59;8.85;;;3.55;;
51438;SDS011;38816;51.142;-0.974;2023-05-18T09:48:31;4.60;;;3.30;;
51438;SDS011;38816;51.142;-0.974;2023-05-18T09:50:59;7.63;;;3.70;;
51438;SDS011;38816;51.142;-0.974;2023-05-18T09:53:24;7.72;;;3.50;;
51438;SDS011;38816;51.142;-0.974;2023-05-18T09:55:50;8.13;;;3.97;;
51438;SDS011;38816;51.142;-0.974;2023-05-18T09:58:15;6.95;;;3.72;;
51438;SDS011;38816;51.142;-0.974;2023-05-18T10:00:42;9.02;;;3.63;;
51438;SDS011;38816;51.142;-0.974;2023-05-18T10:03:15;7.28;;;3.10;;
51438;SDS011;38816;51.142;-0.974;2023-05-18T10:05:47;6.45;;;3.33;;
51438;SDS011;38816;51.142;-0.974;2023-05-18T10:08:14;5.63;;;3.20;;
51438;SDS011;38816;51.142;-0.974;2023-05-18T10:10:41;6.40;;;3.50;;
51438;SDS011;38816;51.142;-0.974;2023-05-18T10:13:08;6.28;;;3.00;;
51438;SDS011;38816;51.142;-0.974;2023-05-18T10:15:44;5.88;;;3.42;;
51438;SDS011;38816;51.142;-0.974;2023-05-18T10:18:21;6.95;;;3.08;;
51438;SDS011;38816;51.142;-0.974;2023-05-18T10:20:48;5.57;;;3.22;;
51438;SDS011;38816;51.142;-0.974;2023-05-18T10:23:14;8.38;;;3.63;;
51438;SDS011;38816;51.142;-0.974;2023-05-18T10:25:43;6.18;;;3.40;;
51438;SDS011;38816;51.142;-0.974;2023-05-18T10:28:10;5.35;;;2.88;;
51438;SDS011;38816;51.142;-0.974;2023-05-18T10:30:36;10.25;;;3.38;;
51438;SDS011;38816;51.142;-0.974;2023-05-18T10:33:05;4.72;;;3.45;;
51438;SDS011;38816;51.142;-0.974;2023-05-18T10:35:31;5.20;;;3.30;;
51438;SDS011;38816;51.142;-0.974;2023-05-18T10:37:57;8.15;;;3.00;;
51438;SDS011;38816;51.142;-0.974;2023-05-18T10:40:23;4.68;;;3.08;;
51438;SDS011;38816;51.142;-0.974;2023-05-18T10:42:52;5.50;;;3.60;;
51438;SDS011;38816;51.142;-0.974;2023-05-18T10:45:22;5.57;;;3.38;;
51438;SDS011;38816;51.142;-0.974;2023-05-18T10:47:49;4.70;;;3.30;;
51438;SDS011;38816;51.142;-0.974;2023-05-18T10:50:19;4.82;;;3.50;;
51438;SDS011;38816;51.142;-0.974;2023-05-18T10:52:46;5.22;;;3.60;;
51438;SDS011;38816;51.142;-0.974;2023-05-18T10:55:12;6.32;;;3.63;;
51438;SDS011;38816;51.142;-0.974;2023-05-18T10:57:43;6.22;;;3.92;;
51438;SDS011;38816;51.142;-0.974;2023-05-18T11:00:13;6.97;;;4.88;;
51438;SDS011;38816;51.142;-0.974;2023-05-18T11:02:40;5.60;;;4.07;;
51438;SDS011;38816;51.142;-0.974;2023-05-18T11:05:06;8.73;;;4.65;;
51438;SDS011;38816;51.142;-0.974;2023-05-18T11:07:33;6.10;;;4.72;;
51438;SDS011;38816;51.142;-0.974;2023-05-18T11:10:02;5.53;;;4.63;;
51438;SDS011;38816;51.142;-0.974;2023-05-18T11:12:33;5.55;;;4.97;;
51438;SDS011;38816;51.142;-0.974;2023-05-18T11:15:02;16.15;;;4.75;;
51438;SDS011;38816;51.142;-0.974;2023-05-18T11:17:28;9.57;;;5.63;;
51438;SDS011;38816;51.142;-0.974;2023-05-18T11:22:51;9.43;;;5.70;;
51438;SDS011;38816;51.142;-0.974;2023-05-18T11:27:53;6.50;;;5.05;;
51438;SDS011;38816;51.142;-0.974;2023-05-18T11:30:27;5.15;;;4.63;;
51438;SDS011;38816;51.142;-0.974;2023-05-18T11:35:56;6.60;;;4.90;;
51438;SDS011;38816;51.142;-0.974;2023-05-18T11:41:37;6.07;;;5.13;;
51438;SDS011;38816;51.142;-0.974;2023-05-18T11:44:13;6.80;;;5.13;;
51438;SDS011;38816;51.142;-0.974;2023-05-18T11:46:53;5.78;;;4.80;;
51438;SDS011;38816;51.142;-0.974;2023-05-18T11:49:45;6.50;;;5.32;;
51438;SDS011;38816;51.142;-0.974;2023-05-18T11:52:13;6.57;;;4.97;;
51438;SDS011;38816;51.142;-0.974;2023-05-18T11:57:16;8.00;;;5.60;;
51438;SDS011;38816;51.142;-0.974;2023-05-18T11:59:43;6.70;;;5.20;;
51438;SDS011;38816;51.142;-0.974;2023-05-18T12:02:11;8.60;;;4.97;;
51438;SDS011;38816;51.142;-0.974;2023-05-18T12:04:44;7.38;;;4.88;;
51438;SDS011;38816;51.142;-0.974;2023-05-18T12:07:11;7.80;;;5.30;;
51438;SDS011;38816;51.142;-0.974;2023-05-18T12:09:40;6.68;;;6.05;;
51438;SDS011;38816;51.142;-0.974;2023-05-18T12:12:07;9.80;;;6.32;;
51438;SDS011;38816;51.142;-0.974;2023-05-18T12:14:34;7.95;;;6.20;;
51438;SDS011;38816;51.142;-0.974;2023-05-18T12:17:00;8.07;;;5.80;;
51438;SDS011;38816;51.142;-0.974;2023-05-18T12:19:25;10.05;;;6.10;;
51438;SDS011;38816;51.142;-0.974;2023-05-18T12:21:51;8.05;;;5.63;;
51438;SDS011;38816;51.142;-0.974;2023-05-18T12:24:17;8.48;;;6.57;;
51438;SDS011;38816;51.142;-0.974;2023-05-18T12:26:42;8.52;;;5.80;;
51438;SDS011;38816;51.142;-0.974;2023-05-18T12:29:10;9.43;;;6.78;;
51438;SDS011;38816;51.142;-0.974;2023-05-18T12:31:39;8.27;;;5.75;;
51438;SDS011;38816;51.142;-0.974;2023-05-18T12:34:08;7.15;;;6.45;;
51438;SDS011;38816;51.142;-0.974;2023-05-18T12:36:39;6.90;;;6.20;;
51438;SDS011;38816;51.142;-0.974;2023-05-18T12:39:04;8.23;;;6.38;;
51438;SDS011;38816;51.142;-0.974;2023-05-18T12:41:30;8.57;;;7.18;;
51438;SDS011;38816;51.142;-0.974;2023-05-18T12:43:56;7.20;;;6.50;;
51438;SDS011;38816;51.142;-0.974;2023-05-18T12:46:22;10.18;;;7.53;;
51438;SDS011;38816;51.142;-0.974;2023-05-18T12:48:57;14.80;;;6.90;;
51438;SDS011;38816;51.142;-0.974;2023-05-18T12:51:30;9.52;;;7.43;;
51438;SDS011;38816;51.142;-0.974;2023-05-18T12:53:56;8.82;;;7.32;;
51438;SDS011;38816;51.142;-0.974;2023-05-18T12:56:22;7.82;;;7.03;;
51438;SDS011;38816;51.142;-0.974;2023-05-18T12:58:59;10.15;;;7.20;;
51438;SDS011;38816;51.142;-0.974;2023-05-18T13:01:28;7.93;;;7.18;;
51438;SDS011;38816;51.142;-0.974;2023-05-18T13:03:57;6.78;;;6.18;;
51438;SDS011;38816;51.142;-0.974;2023-05-18T13:06:23;10.48;;;6.57;;
51438;SDS011;38816;51.142;-0.974;2023-05-18T13:08:51;10.82;;;7.85;;
51438;SDS011;38816;51.142;-0.974;2023-05-18T13:11:18;7.72;;;7.03;;
51438;SDS011;38816;51.142;-0.974;2023-05-18T13:16:23;8.70;;;7.80;;
51438;SDS011;38816;51.142;-0.974;2023-05-18T13:18:59;8.98;;;7.65;;
51438;SDS011;38816;51.142;-0.974;2023-05-18T13:21:26;9.88;;;8.23;;
51438;SDS011;38816;51.142;-0.974;2023-05-18T13:23:52;10.32;;;8.32;;
51438;SDS011;38816;51.142;-0.974;2023-05-18T13:26:19;8.85;;;7.75;;
51438;SDS011;38816;51.142;-0.974;2023-05-18T13:28:49;8.90;;;7.88;;
51438;SDS011;38816;51.142;-0.974;2023-05-18T13:31:16;8.40;;;7.22;;
51438;SDS011;38816;51.142;-0.974;2023-05-18T13:33:41;7.65;;;6.85;;
51438;SDS011;38816;51.142;-0.974;2023-05-18T13:36:07;8.07;;;6.80;;
51438;SDS011;38816;51.142;-0.974;2023-05-18T13:38:33;7.40;;;6.70;;
51438;SDS011;38816;51.142;-0.974;2023-05-18T13:41:01;10.35;;;6.97;;
51438;SDS011;38816;51.142;-0.974;2023-05-18T13:43:27;7.38;;;6.68;;
51438;SDS011;38816;51.142;-0.974;2023-05-18T13:45:52;8.27;;;7.07;;
51438;SDS011;38816;51.142;-0.974;2023-05-18T13:48:17;8.32;;;7.22;;
51438;SDS011;38816;51.142;-0.974;2023-05-18T13:50:43;7.75;;;7.15;;
51438;SDS011;38816;51.142;-0.974;2023-05-18T13:53:08;8.70;;;7.13;;
51438;SDS011;38816;51.142;-0.974;2023-05-18T13:55:34;9.95;;;7.55;;
51438;SDS011;38816;51.142;-0.974;2023-05-18T13:57:59;8.50;;;7.60;;
51438;SDS011;38816;51.142;-0.974;2023-05-18T14:00:25;9.23;;;6.70;;
51438;SDS011;38816;51.142;-0.974;2023-05-18T14:02:50;7.78;;;6.85;;
51438;SDS011;38816;51.142;-0.974;2023-05-18T14:05:17;7.78;;;6.85;;
51438;SDS011;38816;51.142;-0.974;2023-05-18T14:07:42;8.38;;;7.13;;
51438;SDS011;38816;51.142;-0.974;2023-05-18T14:10:08;9.32;;;7.15;;
51438;SDS011;38816;51.142;-0.974;2023-05-18T14:12:36;7.60;;;6.80;;
51438;SDS011;38816;51.142;-0.974;2023-05-18T14:15:02;7.32;;;6.22;;
51438;SDS011;38816;51.142;-0.974;2023-05-18T14:17:28;7.82;;;6.57;;
51438;SDS011;38816;51.142;-0.974;2023-05-18T14:19:54;7.88;;;6.95;;
51438;SDS011;38816;51.142;-0.974;2023-05-18T14:22:20;9.85;;;7.15;;
51438;SDS011;38816;51.142;-0.974;2023-05-18T14:24:46;9.18;;;7.95;;
51438;SDS011;38816;51.142;-0.974;2023-05-18T14:27:14;10.32;;;7.95;;
51438;SDS011;38816;51.142;-0.974;2023-05-18T14:29:40;8.88;;;8.00;;
51438;SDS011;38816;51.142;-0.974;2023-05-18T14:32:06;8.15;;;7.35;;
51438;SDS011;38816;51.142;-0.974;2023-05-18T14:34:31;8.35;;;7.55;;
51438;SDS011;38816;51.142;-0.974;2023-05-18T14:36:57;9.45;;;8.10;;
51438;SDS011;38816;51.142;-0.974;2023-05-18T14:39:22;12.57;;;7.68;;
51438;SDS011;38816;51.142;-0.974;2023-05-18T14:41:48;7.55;;;6.70;;
51438;SDS011;38816;51.142;-0.974;2023-05-18T14:44:13;8.27;;;7.18;;
51438;SDS011;38816;51.142;-0.974;2023-05-18T14:46:38;10.48;;;7.53;;